createdAt,value
2018-05-31T00:01:57.293Z,101299.22
2018-05-31T00:04:23.437Z,101289.34
2018-05-31T00:06:49.461Z,101284.97
2018-05-31T00:09:15.560Z,101284.03
2018-05-31T00:11:41.789Z,101281.02
2018-05-31T00:14:07.821Z,101279.53
2018-05-31T00:16:33.857Z,101277.25
2018-05-31T00:18:59.878Z,101272.05
2018-05-31T00:21:25.900Z,101280.06
2018-05-31T00:23:51.925Z,101268.89
2018-05-31T00:26:17.934Z,101265.38
2018-05-31T00:28:43.957Z,101265.48
2018-05-31T00:31:09.996Z,101260.99
2018-05-31T00:33:36.017Z,101260.66
2018-05-31T00:36:02.037Z,101258.96
2018-05-31T00:38:28.071Z,101253.63
2018-05-31T00:40:54.082Z,101250.41
2018-05-31T00:43:20.109Z,101250.62
2018-05-31T00:45:46.174Z,101258.31
2018-05-31T00:48:12.198Z,101253.64
2018-05-31T00:50:38.231Z,101251.45
2018-05-31T00:53:04.262Z,101252.89
2018-05-31T00:55:42.733Z,101249.98
2018-05-31T00:58:12.051Z,101253.61
2018-05-31T01:00:38.116Z,101250.89
2018-05-31T01:03:04.138Z,101245.88
2018-05-31T01:05:30.190Z,101253.90
2018-05-31T01:07:56.238Z,101244.95
2018-05-31T01:10:22.267Z,101246.39
2018-05-31T01:12:48.324Z,101245.87
2018-05-31T01:15:14.696Z,101242.34
2018-05-31T01:17:41.061Z,101241.97
2018-05-31T01:20:07.404Z,101238.73
2018-05-31T01:22:33.433Z,101232.36
2018-05-31T01:24:59.491Z,101232.27
2018-05-31T01:27:25.536Z,101230.39
2018-05-31T01:29:51.578Z,101224.34
2018-05-31T01:32:17.615Z,101224.77
2018-05-31T01:34:43.638Z,101228.43
2018-05-31T01:37:09.884Z,101224.31
2018-05-31T01:39:35.962Z,101218.70
2018-05-31T01:42:02.011Z,101218.78
2018-05-31T01:44:28.369Z,101215.23
2018-05-31T01:46:57.152Z,101218.27
2018-05-31T01:49:23.184Z,101216.28
2018-05-31T01:51:49.254Z,101215.45
2018-05-31T01:54:15.327Z,101217.02
2018-05-31T01:56:41.350Z,101219.84
2018-05-31T01:59:07.407Z,101218.82
2018-05-31T02:01:33.586Z,101218.00
2018-05-31T02:03:59.630Z,101222.88
2018-05-31T02:06:25.712Z,101222.88
2018-05-31T02:08:51.735Z,101225.73
2018-05-31T02:11:17.785Z,101226.69
2018-05-31T02:13:43.789Z,101225.02
2018-05-31T02:16:09.800Z,101226.25
2018-05-31T02:18:35.852Z,101216.76
2018-05-31T02:21:01.894Z,101218.33
2018-05-31T02:23:27.939Z,101219.57
2018-05-31T02:25:53.961Z,101217.90
2018-05-31T02:28:20.015Z,101221.53
2018-05-31T02:30:46.044Z,101213.92
2018-05-31T02:33:12.062Z,101210.37
2018-05-31T02:35:38.062Z,101202.45
2018-05-31T02:38:04.106Z,101204.11
2018-05-31T02:40:30.111Z,101198.40
2018-05-31T02:42:56.135Z,101200.72
2018-05-31T02:45:23.655Z,101191.55
2018-05-31T02:47:49.693Z,101192.48
2018-05-31T02:50:15.716Z,101196.44
2018-05-31T02:52:41.803Z,101198.60
2018-05-31T02:55:07.865Z,101198.48
2018-05-31T02:57:33.884Z,101201.61
2018-05-31T02:59:59.941Z,101199.00
2018-05-31T03:02:25.963Z,101193.08
2018-05-31T03:04:52.000Z,101191.64
2018-05-31T03:07:18.030Z,101190.28
2018-05-31T03:09:44.052Z,101188.91
2018-05-31T03:12:10.144Z,101186.09
2018-05-31T03:14:36.147Z,101183.99
2018-05-31T03:17:02.133Z,101185.87
2018-05-31T03:19:28.156Z,101187.77
2018-05-31T03:21:54.169Z,101187.56
2018-05-31T03:24:20.186Z,101192.55
2018-05-31T03:26:46.263Z,101201.60
2018-05-31T03:29:12.285Z,101189.44
2018-05-31T03:31:38.297Z,101186.37
2018-05-31T03:34:04.357Z,101189.20
2018-05-31T03:36:30.399Z,101187.77
2018-05-31T03:38:56.430Z,101187.55
2018-05-31T03:41:22.464Z,101186.63
2018-05-31T03:43:48.569Z,101180.24
2018-05-31T03:46:14.647Z,101189.45
2018-05-31T03:48:40.674Z,101194.23
2018-05-31T03:51:06.782Z,101193.63
2018-05-31T03:53:32.847Z,101185.71
2018-05-31T03:55:58.892Z,101185.19
2018-05-31T03:58:25.090Z,101178.12
2018-05-31T04:00:51.258Z,101187.72
2018-05-31T04:03:17.344Z,101194.47
2018-05-31T04:05:43.363Z,101198.97
2018-05-31T04:08:09.398Z,101197.92
2018-05-31T04:10:36.221Z,101192.17
2018-05-31T04:13:02.251Z,101199.79
2018-05-31T04:15:28.921Z,101199.27
2018-05-31T04:17:55.211Z,101199.69
2018-05-31T04:20:21.343Z,101195.34
2018-05-31T04:22:47.457Z,101197.64
2018-05-31T04:25:13.485Z,101203.59
2018-05-31T04:27:46.537Z,101199.63
2018-05-31T04:30:12.701Z,101201.19
2018-05-31T04:32:38.837Z,101201.94
2018-05-31T04:35:05.370Z,101199.52
2018-05-31T04:37:31.654Z,101205.25
2018-05-31T04:39:57.676Z,101208.81
2018-05-31T04:42:23.759Z,101210.05
2018-05-31T04:44:49.823Z,101216.41
2018-05-31T04:47:15.906Z,101209.33
2018-05-31T04:49:41.995Z,101206.20
2018-05-31T04:52:08.041Z,101205.03
2018-05-31T04:54:34.087Z,101207.45
2018-05-31T04:57:00.134Z,101212.34
2018-05-31T04:59:26.297Z,101210.47
2018-05-31T05:01:52.520Z,101211.73
2018-05-31T05:04:18.567Z,101210.69
2018-05-31T05:06:44.583Z,101217.16
2018-05-31T05:09:10.602Z,101218.31
2018-05-31T05:11:36.712Z,101217.38
2018-05-31T05:14:02.855Z,101217.91
2018-05-31T05:16:29.173Z,101220.83
2018-05-31T05:18:55.423Z,101221.21
2018-05-31T05:21:21.430Z,101214.92
2018-05-31T05:23:47.487Z,101214.93
2018-05-31T05:26:13.669Z,101219.41
2018-05-31T05:28:39.702Z,101221.61
2018-05-31T05:31:05.768Z,101226.20
2018-05-31T05:33:31.786Z,101223.16
2018-05-31T05:35:57.894Z,101227.09
2018-05-31T05:38:23.916Z,101230.11
2018-05-31T05:40:49.948Z,101233.30
2018-05-31T05:43:15.991Z,101236.27
2018-05-31T05:45:42.036Z,101228.75
2018-05-31T05:48:08.142Z,101230.41
2018-05-31T05:50:34.201Z,101236.70
2018-05-31T05:53:00.250Z,101239.33
2018-05-31T05:55:26.355Z,101249.20
2018-05-31T05:57:52.358Z,101244.72
2018-05-31T06:00:18.429Z,101254.66
2018-05-31T06:02:44.450Z,101277.89
2018-05-31T06:05:10.522Z,101273.08
2018-05-31T06:07:36.572Z,101256.27
2018-05-31T06:10:02.731Z,101264.48
2018-05-31T06:12:29.211Z,101278.46
2018-05-31T06:14:55.334Z,101273.70
2018-05-31T06:17:21.417Z,101271.52
2018-05-31T06:19:47.465Z,101280.53
2018-05-31T06:22:13.642Z,101281.63
2018-05-31T06:24:39.807Z,101277.70
2018-05-31T06:27:05.785Z,101286.12
2018-05-31T06:29:31.814Z,101283.27
2018-05-31T06:31:57.864Z,101277.05
2018-05-31T06:34:23.899Z,101275.02
2018-05-31T06:36:49.938Z,101270.93
2018-05-31T06:39:16.018Z,101269.91
2018-05-31T06:41:42.053Z,101264.92
2018-05-31T06:44:08.074Z,101260.91
2018-05-31T06:46:34.104Z,101261.19
2018-05-31T06:49:00.106Z,101266.89
2018-05-31T06:51:26.135Z,101269.28
2018-05-31T06:53:52.217Z,101271.51
2018-05-31T06:56:18.262Z,101264.99
2018-05-31T06:58:44.282Z,101267.91
2018-05-31T07:01:10.330Z,101268.44
2018-05-31T07:03:36.428Z,101275.68
2018-05-31T07:06:02.498Z,101277.80
2018-05-31T07:08:28.503Z,101282.48
2018-05-31T07:10:54.530Z,101282.81
2018-05-31T07:13:20.575Z,101277.30
2018-05-31T07:15:46.910Z,101279.81
2018-05-31T07:18:13.054Z,101281.26
2018-05-31T07:20:39.078Z,101281.60
2018-05-31T07:23:05.148Z,101287.85
2018-05-31T07:25:31.235Z,101291.97
2018-05-31T07:27:57.354Z,101298.03
2018-05-31T07:30:23.395Z,101299.83
2018-05-31T07:32:49.482Z,101305.75
2018-05-31T07:35:15.565Z,101308.00
2018-05-31T07:37:41.670Z,101307.06
2018-05-31T07:40:07.700Z,101312.47
2018-05-31T07:42:33.763Z,101316.05
2018-05-31T07:44:59.834Z,101311.55
2018-05-31T07:47:25.862Z,101308.55
2018-05-31T07:49:51.914Z,101307.57
2018-05-31T07:52:17.979Z,101313.25
2018-05-31T07:54:44.008Z,101310.70
2018-05-31T07:57:10.028Z,101305.41
2018-05-31T07:59:36.053Z,101305.34
2018-05-31T08:02:02.113Z,101309.80
2018-05-31T08:04:28.990Z,101312.33
2018-05-31T08:06:55.229Z,101303.92
2018-05-31T08:09:21.444Z,101305.81
2018-05-31T08:11:47.450Z,101310.44
2018-05-31T08:14:13.484Z,101304.45
2018-05-31T08:16:40.487Z,101306.45
2018-05-31T08:19:06.509Z,101304.78
2018-05-31T08:21:32.531Z,101305.61
2018-05-31T08:23:58.553Z,101301.47
2018-05-31T08:26:24.621Z,101306.66
2018-05-31T08:28:51.036Z,101303.98
2018-05-31T08:31:17.199Z,101311.02
2018-05-31T08:33:43.390Z,101303.12
2018-05-31T08:36:09.405Z,101309.13
2018-05-31T08:38:35.429Z,101310.34
2018-05-31T08:41:01.545Z,101309.72
2018-05-31T08:43:27.694Z,101308.88
2018-05-31T08:45:53.718Z,101319.76
2018-05-31T08:48:19.750Z,101341.99
2018-05-31T08:50:45.795Z,101365.03
2018-05-31T08:53:11.825Z,101371.50
2018-05-31T08:55:37.857Z,101385.00
2018-05-31T08:58:03.897Z,101391.16
2018-05-31T09:00:30.086Z,101428.17
2018-05-31T09:02:56.101Z,101442.12
2018-05-31T09:05:22.132Z,101430.58
2018-05-31T09:44:32.378Z,101460.02
2018-05-31T09:46:58.412Z,101455.34
2018-05-31T09:49:24.445Z,101453.81
2018-05-31T09:51:50.427Z,101488.48
2018-05-31T09:54:16.985Z,101521.91
2018-05-31T09:56:43.059Z,101536.41
2018-05-31T09:59:09.059Z,101503.03
2018-05-31T10:01:35.118Z,101494.55
2018-05-31T10:04:01.151Z,101485.45
2018-05-31T10:06:27.139Z,101486.94
2018-05-31T10:08:53.271Z,101481.70
2018-05-31T10:11:19.294Z,101475.70
2018-05-31T10:13:45.402Z,101485.03
2018-05-31T10:16:12.029Z,101475.94
2018-05-31T10:18:38.013Z,101474.01
2018-05-31T10:21:04.000Z,101461.16
2018-05-31T10:23:30.003Z,101439.13
2018-05-31T10:25:55.946Z,101421.33
2018-05-31T10:28:21.927Z,101408.48
2018-05-31T10:30:47.935Z,101415.84
2018-05-31T10:33:13.962Z,101408.25
2018-05-31T10:35:39.987Z,101413.95
2018-05-31T10:38:05.978Z,101405.67
2018-05-31T10:40:32.020Z,101407.77
2018-05-31T10:42:58.055Z,101404.12
2018-05-31T10:45:24.029Z,101404.70
2018-05-31T10:47:50.066Z,101392.87
2018-05-31T10:50:16.104Z,101389.06
2018-05-31T10:52:42.202Z,101387.69
2018-05-31T10:55:08.214Z,101389.77
2018-05-31T10:57:34.266Z,101386.93
2018-05-31T11:00:00.247Z,101381.05
2018-05-31T11:02:26.241Z,101373.47
2018-05-31T11:04:52.240Z,101371.20
2018-05-31T11:07:18.255Z,101366.33
2018-05-31T11:09:44.270Z,101359.91
2018-05-31T11:12:10.262Z,101365.91
2018-05-31T11:14:36.237Z,101360.17
2018-05-31T11:17:02.240Z,101359.45
2018-05-31T11:19:28.229Z,101359.50
2018-05-31T11:21:54.257Z,101362.96
2018-05-31T11:24:20.275Z,101353.09
2018-05-31T11:26:46.270Z,101346.28
2018-05-31T11:29:12.277Z,101343.01
2018-05-31T11:31:38.213Z,101341.63
2018-05-31T11:34:04.253Z,101344.36
2018-05-31T11:36:30.389Z,101350.88
2018-05-31T11:38:56.457Z,101355.17
2018-05-31T11:41:22.422Z,101362.55
2018-05-31T11:43:48.397Z,101365.19
2018-05-31T11:46:14.394Z,101376.68
2018-05-31T11:48:40.402Z,101369.27
2018-05-31T11:51:06.397Z,101380.65
2018-05-31T11:53:32.451Z,101376.63
2018-05-31T11:55:58.470Z,101374.86
2018-05-31T11:58:24.462Z,101377.94
2018-05-31T12:00:50.490Z,101379.57
2018-05-31T12:03:16.483Z,101378.41
2018-05-31T12:05:42.452Z,101389.44
2018-05-31T12:08:08.518Z,101389.98
2018-05-31T12:10:34.569Z,101387.84
2018-05-31T12:13:00.580Z,101393.04
2018-05-31T12:15:26.553Z,101398.14
2018-05-31T12:17:52.573Z,101397.80
2018-05-31T12:20:18.576Z,101392.38
2018-05-31T12:22:44.612Z,101398.17
2018-05-31T12:25:10.645Z,101406.92
2018-05-31T12:27:36.974Z,101405.02
2018-05-31T12:30:03.100Z,101409.52
2018-05-31T12:32:29.114Z,101402.39
2018-05-31T12:34:55.142Z,101402.55
2018-05-31T12:37:21.257Z,101403.55
2018-05-31T12:39:47.299Z,101405.63
2018-05-31T12:42:13.311Z,101392.17
2018-05-31T12:44:39.300Z,101397.45
2018-05-31T12:47:05.437Z,101396.18
2018-05-31T12:49:31.973Z,101390.21
2018-05-31T12:51:57.977Z,101392.81
2018-05-31T12:54:23.975Z,101383.48
2018-05-31T12:56:49.970Z,101383.91
2018-05-31T12:59:15.971Z,101380.34
2018-05-31T13:01:41.981Z,101374.41
2018-05-31T13:04:08.001Z,101376.88
2018-05-31T13:06:33.997Z,101372.15
2018-05-31T13:09:00.018Z,101372.37
2018-05-31T13:14:02.156Z,101369.30
2018-05-31T13:19:01.620Z,101388.63
2018-05-31T13:21:27.705Z,101379.32
2018-05-31T13:23:53.833Z,101377.70
2018-05-31T13:26:20.025Z,101370.90
2018-05-31T13:28:46.051Z,101369.46
2018-05-31T13:31:12.110Z,101369.94
2018-05-31T13:33:38.164Z,101364.67
2018-05-31T13:36:04.213Z,101364.80
2018-05-31T13:38:30.232Z,101358.60
2018-05-31T13:40:56.238Z,101357.92
2018-05-31T13:43:22.262Z,101358.97
2018-05-31T13:45:48.304Z,101357.23
2018-05-31T13:48:14.462Z,101352.44
2018-05-31T13:50:40.518Z,101350.78
2018-05-31T13:53:06.544Z,101349.91
2018-05-31T13:55:32.570Z,101348.60
2018-05-31T13:57:58.626Z,101347.84
2018-05-31T14:00:24.720Z,101351.69
2018-05-31T14:02:50.756Z,101353.51
2018-05-31T14:05:16.810Z,101351.87
2018-05-31T14:07:42.999Z,101355.75
2018-05-31T14:10:09.051Z,101350.83
2018-05-31T14:12:35.158Z,101346.05
2018-05-31T14:15:01.217Z,101352.65
2018-05-31T14:17:27.341Z,101354.62
2018-05-31T14:19:53.500Z,101354.50
2018-05-31T14:22:20.332Z,101355.27
2018-05-31T14:24:46.420Z,101355.41
2018-05-31T14:27:12.716Z,101350.56
2018-05-31T14:29:38.758Z,101347.60
2018-05-31T14:32:04.791Z,101341.41
2018-05-31T14:34:30.906Z,101342.82
2018-05-31T14:36:56.966Z,101340.47
2018-05-31T14:39:23.023Z,101335.36
2018-05-31T14:41:50.158Z,101338.96
2018-05-31T14:44:16.266Z,101338.48
2018-05-31T14:46:42.287Z,101339.95
2018-05-31T14:49:08.364Z,101350.38
2018-05-31T14:51:34.360Z,101348.81
2018-05-31T14:54:00.574Z,101352.84
2018-05-31T14:56:26.621Z,101353.42
2018-05-31T14:58:52.657Z,101344.90
2018-05-31T15:01:18.668Z,101348.55
2018-05-31T15:03:44.739Z,101353.30
2018-05-31T15:06:10.816Z,101346.41
2018-05-31T15:08:36.846Z,101341.35
2018-05-31T15:11:02.865Z,101345.89
2018-05-31T15:13:29.133Z,101352.77
2018-05-31T15:15:55.658Z,101344.06
2018-05-31T15:18:29.006Z,101352.15
2018-05-31T15:20:55.060Z,101349.52
2018-05-31T15:23:21.103Z,101349.67
2018-05-31T15:25:47.399Z,101341.89
2018-05-31T15:28:13.560Z,101338.73
2018-05-31T15:30:39.783Z,101345.31
2018-05-31T15:33:05.832Z,101344.19
2018-05-31T15:35:31.893Z,101341.09
2018-05-31T15:37:58.002Z,101347.03
2018-05-31T15:40:24.027Z,101343.45
2018-05-31T15:42:50.087Z,101342.49
2018-05-31T15:45:16.130Z,101350.23
2018-05-31T15:47:42.186Z,101342.52
2018-05-31T15:50:08.222Z,101341.10
2018-05-31T15:52:34.531Z,101336.69
2018-05-31T15:55:00.575Z,101336.24
2018-05-31T15:57:26.571Z,101337.66
2018-05-31T15:59:52.593Z,101337.91
2018-05-31T16:02:18.620Z,101331.17
2018-05-31T16:04:44.699Z,101328.08
2018-05-31T16:07:10.736Z,101329.27
2018-05-31T16:09:36.758Z,101321.70
2018-05-31T16:12:03.631Z,101328.11
2018-05-31T16:14:29.730Z,101325.14
2018-05-31T16:16:55.756Z,101325.67
2018-05-31T16:19:22.769Z,101328.17
2018-05-31T16:21:48.973Z,101323.91
2018-05-31T16:24:15.189Z,101320.00
2018-05-31T16:26:41.225Z,101320.98
2018-05-31T16:29:07.253Z,101321.64
2018-05-31T16:31:33.359Z,101312.97
2018-05-31T16:33:59.459Z,101314.25
2018-05-31T16:36:25.530Z,101309.23
2018-05-31T16:38:51.590Z,101306.99
2018-05-31T16:41:17.641Z,101305.94
2018-05-31T16:43:43.910Z,101298.19
2018-05-31T16:46:09.890Z,101299.06
2018-05-31T16:48:36.063Z,101286.69
2018-05-31T16:51:02.092Z,101291.23
2018-05-31T16:53:28.179Z,101285.75
2018-05-31T16:55:54.187Z,101293.28
2018-05-31T16:58:20.192Z,101290.31
2018-05-31T17:00:46.202Z,101293.51
2018-05-31T17:03:12.228Z,101300.84
2018-05-31T17:05:38.271Z,101293.50
2018-05-31T17:08:04.330Z,101286.46
2018-05-31T17:10:30.331Z,101273.86
2018-05-31T17:12:56.416Z,101271.46
2018-05-31T17:15:22.441Z,101265.57
2018-05-31T17:17:48.434Z,101266.16
2018-05-31T17:20:14.499Z,101260.86
2018-05-31T17:22:40.564Z,101262.88
2018-05-31T17:25:06.573Z,101252.17
2018-05-31T17:27:32.606Z,101245.05
2018-05-31T17:29:58.611Z,101248.96
2018-05-31T17:32:24.618Z,101255.43
2018-05-31T17:34:50.625Z,101253.61
2018-05-31T17:37:16.627Z,101259.73
2018-05-31T17:39:42.638Z,101267.11
2018-05-31T17:42:08.661Z,101270.30
2018-05-31T17:44:34.830Z,101271.86
2018-05-31T17:47:00.846Z,101272.33
2018-05-31T17:49:26.836Z,101271.88
2018-05-31T17:51:53.127Z,101268.17
2018-05-31T17:54:19.378Z,101267.87
2018-05-31T17:56:45.406Z,101270.49
2018-05-31T17:59:11.877Z,101271.94
2018-05-31T18:01:37.919Z,101272.05
2018-05-31T18:04:03.940Z,101270.98
2018-05-31T18:06:30.482Z,101274.87
2018-05-31T18:08:56.520Z,101273.05
2018-05-31T18:11:22.552Z,101274.77
2018-05-31T18:13:48.580Z,101274.17
2018-05-31T18:16:14.672Z,101278.63
2018-05-31T18:18:40.736Z,101281.19
2018-05-31T18:21:06.794Z,101286.94
2018-05-31T18:23:33.464Z,101294.12
2018-05-31T18:25:59.637Z,101296.31
2018-05-31T18:28:26.549Z,101305.12
2018-05-31T18:30:52.583Z,101305.41
2018-05-31T18:33:18.599Z,101314.33
2018-05-31T18:35:44.639Z,101301.78
2018-05-31T18:38:10.682Z,101306.86
2018-05-31T18:40:36.770Z,101311.49
2018-05-31T18:47:35.929Z,101322.13
2018-05-31T18:50:01.962Z,101325.44
2018-05-31T18:52:28.008Z,101319.68
2018-05-31T18:54:54.078Z,101318.20
2018-05-31T18:57:20.115Z,101319.69
2018-05-31T18:59:46.169Z,101320.06
2018-05-31T19:02:12.378Z,101328.52
2018-05-31T19:04:38.694Z,101320.97
2018-05-31T19:07:04.724Z,101318.31
2018-05-31T19:09:33.894Z,101318.55
2018-05-31T19:12:00.024Z,101313.93
2018-05-31T19:14:26.123Z,101313.43
2018-05-31T19:16:52.171Z,101310.09
2018-05-31T19:19:24.200Z,101310.86
2018-05-31T19:21:50.280Z,101320.13
2018-05-31T19:24:22.337Z,101315.66
2018-05-31T19:26:48.403Z,101315.65
2018-05-31T19:29:14.482Z,101322.53
2018-05-31T19:31:40.510Z,101316.84
2018-05-31T19:34:06.550Z,101326.33
2018-05-31T19:36:38.722Z,101335.73
2018-05-31T19:39:04.893Z,101338.52
2018-05-31T19:41:31.022Z,101345.91
2018-05-31T19:44:03.022Z,101333.12
2018-05-31T19:46:29.091Z,101336.39
2018-05-31T19:48:55.102Z,101341.98
2018-05-31T19:51:27.203Z,101343.17
2018-05-31T19:53:53.294Z,101348.97
2018-05-31T19:56:19.385Z,101352.98
2018-05-31T19:58:51.804Z,101354.06
2018-05-31T20:01:23.971Z,101350.94
2018-05-31T20:03:50.089Z,101348.92
2018-05-31T20:06:16.183Z,101361.00
2018-05-31T20:08:42.226Z,101365.45
2018-05-31T20:11:08.291Z,101366.38
2018-05-31T20:13:34.325Z,101369.78
2018-05-31T20:16:00.359Z,101370.52
2018-05-31T20:18:26.402Z,101369.27
2018-05-31T20:20:52.514Z,101368.30
2018-05-31T20:23:18.526Z,101368.63
2018-05-31T20:25:44.523Z,101370.27
2018-05-31T20:28:10.661Z,101376.34
2018-05-31T20:30:36.719Z,101378.12
2018-05-31T20:33:02.722Z,101373.22
2018-05-31T20:35:28.729Z,101370.71
2018-05-31T20:37:54.908Z,101372.42
2018-05-31T20:40:21.097Z,101378.98
2018-05-31T20:42:47.410Z,101383.98
2018-05-31T20:45:13.799Z,101380.56
2018-05-31T20:47:39.882Z,101383.17
2018-05-31T20:50:05.917Z,101385.89
2018-05-31T20:52:31.963Z,101380.13
2018-05-31T20:54:58.066Z,101373.03
2018-05-31T20:57:24.143Z,101370.01
2018-05-31T20:59:50.243Z,101379.72
2018-05-31T21:02:16.237Z,101377.30
2018-05-31T21:04:42.267Z,101382.81
2018-05-31T21:07:08.301Z,101379.39
2018-05-31T21:09:34.306Z,101377.08
2018-05-31T21:12:00.322Z,101377.59
2018-05-31T21:14:26.329Z,101383.81
2018-05-31T21:16:52.342Z,101380.17
2018-05-31T21:19:18.760Z,101377.06
2018-05-31T21:21:44.808Z,101376.63
2018-05-31T21:24:10.819Z,101371.00
2018-05-31T21:26:36.920Z,101388.14
2018-05-31T21:29:03.125Z,101380.75
2018-05-31T21:31:29.325Z,101395.96
2018-05-31T21:33:56.933Z,101400.32
2018-05-31T21:36:23.033Z,101403.44
2018-05-31T21:38:49.049Z,101415.52
2018-05-31T21:41:18.773Z,101420.52
2018-05-31T21:43:44.884Z,101420.52
2018-05-31T21:46:11.081Z,101416.73
2018-05-31T21:48:37.278Z,101418.20
2018-05-31T21:51:03.299Z,101415.47
2018-05-31T21:53:29.297Z,101413.53
2018-05-31T21:55:56.045Z,101416.72
2018-05-31T21:58:22.059Z,101416.20
2018-05-31T22:00:54.136Z,101416.53
2018-05-31T22:03:20.171Z,101409.34
2018-05-31T22:05:46.194Z,101406.89
2018-05-31T22:08:12.222Z,101407.34
2018-05-31T22:10:40.866Z,101412.14
2018-05-31T22:13:07.069Z,101408.19
2018-05-31T22:16:42.272Z,101400.04
2018-05-31T22:19:08.290Z,101390.67
2018-05-31T22:21:34.306Z,101385.87
2018-05-31T22:24:00.345Z,101379.73
2018-05-31T22:26:26.370Z,101375.05
2018-05-31T22:28:52.373Z,101371.99
2018-05-31T22:31:18.411Z,101369.66
2018-05-31T22:33:44.443Z,101367.79
2018-05-31T22:36:10.440Z,101362.39
2018-05-31T22:38:36.456Z,101354.14
2018-05-31T22:41:02.496Z,101352.41
2018-05-31T22:43:28.599Z,101351.43
2018-05-31T22:45:54.597Z,101350.80
2018-05-31T22:48:20.659Z,101345.78
2018-05-31T22:50:46.701Z,101344.64
2018-05-31T22:53:12.754Z,101344.55
2018-05-31T22:55:38.749Z,101336.34
2018-05-31T22:58:04.917Z,101341.94
2018-05-31T23:00:31.549Z,101347.92
2018-05-31T23:02:57.702Z,101356.27
2018-05-31T23:05:24.351Z,101363.56
2018-05-31T23:07:50.374Z,101365.79
2018-05-31T23:10:16.405Z,101360.83
2018-05-31T23:12:42.438Z,101371.04
2018-05-31T23:15:08.452Z,101374.97
2018-05-31T23:17:34.501Z,101377.29
2018-05-31T23:20:00.530Z,101377.26
2018-05-31T23:22:26.530Z,101379.74
2018-05-31T23:24:52.535Z,101379.28
2018-05-31T23:27:18.537Z,101388.73
2018-05-31T23:29:44.563Z,101386.73
2018-05-31T23:32:10.548Z,101384.86
2018-05-31T23:34:36.554Z,101391.66
2018-05-31T23:37:02.592Z,101389.76
2018-05-31T23:39:28.599Z,101392.20
2018-05-31T23:41:54.615Z,101393.39
2018-05-31T23:44:20.609Z,101389.97
2018-05-31T23:46:46.606Z,101385.66
2018-05-31T23:49:12.605Z,101379.81
2018-05-31T23:51:38.631Z,101382.84
2018-05-31T23:54:04.706Z,101387.16
2018-05-31T23:56:30.741Z,101387.08
2018-05-31T23:58:56.737Z,101399.86
